Time;durP1;ratioP1;P1;durP2;ratioP2;P2;SDS_P1;SDS_P2;PMS_P1;PMS_P2;Temp;Humidity;BMP_temperature;BMP_pressure;BME280_temperature;BME280_humidity;BME280_pressure;Samples;Min_cycle;Max_cycle;Signal;HPM_P1;HPM_P2
2021/10/06 00:00:12;;;;;;;;;;;;;;;11.10;75.14;99016.19;5058312;28;19942;-73
2021/10/06 00:02:38;;;;;;;;;;;;;;;11.09;74.78;99022.44;5069239;28;19916;-72
2021/10/06 00:05:03;;;;;;;;;;;;;;;11.10;75.00;99034.66;5069853;28;19957;-72
2021/10/06 00:07:28;;;;;;;;;;;;;;;11.11;75.37;99021.38;5070059;28;19916;-71
2021/10/06 00:09:53;;;;;;;;;;;;;;;11.14;75.01;99018.53;5070143;28;19951;-72
2021/10/06 00:12:19;;;;;;;;;;;;;;;11.14;74.99;99020.34;5051348;28;19947;-71
2021/10/06 00:14:44;;;;;;;;;;;;;;;11.14;74.87;99022.97;5069262;28;19954;-72
2021/10/06 00:17:09;;;;;;;;;;;;;;;11.11;75.05;99033.72;5051830;28;19921;-72
2021/10/06 00:19:34;;;;;;;;;;;;;;;11.10;75.33;99029.38;5069606;28;19920;-71
2021/10/06 00:22:00;;;;;;;;;;;;;;;11.15;74.99;99024.69;5069286;28;19916;-72
2021/10/06 00:24:25;;;;;;;;;;;;;;;11.12;74.72;99038.91;5070086;28;19913;-72
2021/10/06 00:26:51;;;;;;;;;;;;;;;11.11;75.07;99036.38;5069093;28;19935;-72
2021/10/06 00:29:16;;;;;;;;;;;;;;;11.10;74.79;99035.53;5069136;28;19978;-72
2021/10/06 00:31:42;;;;;;;;;;;;;;;11.11;75.11;99044.28;5068789;28;19935;-72
2021/10/06 00:34:07;;;;;;;;;;;;;;;11.12;75.12;99043.31;5051742;28;19912;-71
2021/10/06 00:36:32;;;;;;;;;;;;;;;11.11;74.79;99044.28;5069295;28;19912;-73
2021/10/06 00:38:57;;;;;;;;;;;;;;;11.12;74.86;99054.75;5069173;28;19920;-72
2021/10/06 00:41:23;;;;;;;;;;;;;;;11.14;75.19;99054.63;5069221;28;20011;-72
2021/10/06 00:43:48;;;;;;;;;;;;;;;11.14;74.48;99047.56;5069014;28;19999;-72
2021/10/06 00:46:13;;;;;;;;;;;;;;;11.16;74.88;99053.59;5069306;28;19916;-73
2021/10/06 00:48:38;;;;;;;;;;;;;;;11.18;74.72;99053.50;5069495;28;19919;-73
2021/10/06 00:51:04;;;;;;;;;;;;;;;11.17;74.36;99051.78;5050866;28;19920;-73
2021/10/06 00:53:29;;;;;;;;;;;;;;;11.18;75.12;99061.41;5068763;28;19912;-72
2021/10/06 00:55:55;;;;;;;;;;;;;;;11.18;74.93;99064.06;5069545;28;20292;-73
2021/10/06 00:58:20;;;;;;;;;;;;;;;11.20;75.16;99059.53;5069095;28;19991;-73
2021/10/06 01:00:46;;;;;;;;;;;;;;;11.24;74.67;99066.28;5044421;28;20010;-72
2021/10/06 01:03:11;;;;;;;;;;;;;;;11.28;74.99;99066.97;5067859;28;19920;-73
2021/10/06 01:05:37;;;;;;;;;;;;;;;11.27;74.87;99058.19;5069093;28;19920;-73
2021/10/06 01:08:03;;;;;;;;;;;;;;;11.26;74.66;99061.78;5069032;28;19967;-72
2021/10/06 01:10:28;;;;;;;;;;;;;;;11.26;75.22;99059.13;5050761;28;19912;-73
2021/10/06 01:12:54;;;;;;;;;;;;;;;11.28;74.99;99070.44;5068272;28;20327;-73
2021/10/06 01:15:19;;;;;;;;;;;;;;;11.26;74.68;99069.69;5069199;28;19966;-73
2021/10/06 01:17:44;;;;;;;;;;;;;;;11.27;74.82;99071.41;5069622;28;20391;-73
2021/10/06 01:20:10;;;;;;;;;;;;;;;11.27;74.24;99076.66;5052122;28;19920;-72
2021/10/06 01:22:36;;;;;;;;;;;;;;;11.27;74.67;99074.03;5069345;28;19960;-73
2021/10/06 01:25:05;;;;;;;;;;;;;;;11.28;74.46;99075.72;5069714;28;19912;-73
2021/10/06 01:27:30;;;;;;;;;;;;;;;11.28;74.13;99067.81;5070286;28;19970;-72
2021/10/06 01:29:56;;;;;;;;;;;;;;;11.25;73.87;99065.38;5069052;28;19916;-71
2021/10/06 01:32:21;;;;;;;;;;;;;;;11.25;74.58;99081.19;5068756;28;19912;-71
2021/10/06 01:34:57;;;;;;;;;;;;;;;11.25;74.27;99075.03;5068432;28;20002;-72
2021/10/06 01:37:22;;;;;;;;;;;;;;;11.24;74.49;99074.22;5067766;28;19912;-72
2021/10/06 01:39:47;;;;;;;;;;;;;;;11.22;74.50;99073.44;5043293;28;19985;-71
2021/10/06 01:42:13;;;;;;;;;;;;;;;11.23;74.12;99083.06;5047442;28;20478;-71
2021/10/06 01:44:38;;;;;;;;;;;;;;;11.24;74.50;99089.19;5031240;28;19913;-71
2021/10/06 01:47:03;;;;;;;;;;;;;;;11.23;73.98;99087.50;5067742;28;19916;-70
2021/10/06 01:49:28;;;;;;;;;;;;;;;11.27;74.35;99094.28;5068735;28;19912;-72
2021/10/06 01:51:54;;;;;;;;;;;;;;;11.27;74.21;99078.44;5068299;28;19997;-72
2021/10/06 01:54:19;;;;;;;;;;;;;;;11.29;74.00;99080.03;5069450;28;19912;-73
2021/10/06 01:56:44;;;;;;;;;;;;;;;11.32;74.12;99081.63;5068950;28;19919;-71
2021/10/06 01:59:09;;;;;;;;;;;;;;;11.31;74.18;99079.94;5068833;28;19916;-70
2021/10/06 02:01:35;;;;;;;;;;;;;;;11.26;73.80;99074.97;5050044;28;19926;-72
2021/10/06 02:04:00;;;;;;;;;;;;;;;11.24;74.50;99082.13;5068683;28;19916;-73
2021/10/06 02:06:25;;;;;;;;;;;;;;;11.21;74.26;99087.59;5068849;28;19912;-73
2021/10/06 02:08:50;;;;;;;;;;;;;;;11.21;74.48;99094.69;5066105;28;20315;-72
2021/10/06 02:11:16;;;;;;;;;;;;;;;11.17;74.28;99092.25;5068326;28;20390;-71
2021/10/06 02:13:41;;;;;;;;;;;;;;;11.16;74.29;99095.81;5068553;28;19920;-71
2021/10/06 02:16:07;;;;;;;;;;;;;;;11.09;74.29;99091.00;5068465;28;19912;-73
2021/10/06 02:18:32;;;;;;;;;;;;;;;11.09;73.90;99096.28;5068611;28;19918;-72
2021/10/06 02:20:58;;;;;;;;;;;;;;;11.06;74.20;99085.94;5052986;28;19924;-72
2021/10/06 02:23:23;;;;;;;;;;;;;;;11.01;73.99;99086.22;5071991;28;19956;-72
2021/10/06 02:25:48;;;;;;;;;;;;;;;11.02;74.01;99089.69;5072067;28;19962;-71
2021/10/06 02:28:14;;;;;;;;;;;;;;;11.03;74.27;99091.41;5071339;28;19954;-70
2021/10/06 02:30:39;;;;;;;;;;;;;;;10.97;74.06;99095.25;5036955;28;19923;-72
2021/10/06 02:33:04;;;;;;;;;;;;;;;10.99;74.21;99095.16;5071648;28;19965;-72
2021/10/06 02:35:29;;;;;;;;;;;;;;;10.99;74.34;99092.53;5071938;28;20045;-73
2021/10/06 02:37:55;;;;;;;;;;;;;;;11.01;74.31;99101.19;5071682;28;20288;-72
2021/10/06 02:40:20;;;;;;;;;;;;;;;11.03;74.14;99104.59;5054285;28;19999;-72
2021/10/06 02:42:46;;;;;;;;;;;;;;;11.01;73.76;99104.69;5053219;28;20391;-72
2021/10/06 02:45:12;;;;;;;;;;;;;;;11.02;73.85;99109.00;5071882;28;20395;-72
2021/10/06 02:47:38;;;;;;;;;;;;;;;11.06;74.08;99114.94;5071691;28;19912;-72
2021/10/06 02:50:04;;;;;;;;;;;;;;;11.06;73.74;99123.69;5071724;28;20831;-73
2021/10/06 02:52:29;;;;;;;;;;;;;;;11.08;73.53;99123.63;5070657;28;19916;-72
2021/10/06 02:54:55;;;;;;;;;;;;;;;11.07;73.20;99121.91;5071449;28;19919;-71
2021/10/06 02:57:20;;;;;;;;;;;;;;;11.05;73.75;99118.50;5071802;28;20007;-72
2021/10/06 02:59:45;;;;;;;;;;;;;;;11.05;73.94;99119.38;5071165;28;20249;-72
2021/10/06 03:02:10;;;;;;;;;;;;;;;11.01;73.39;99120.50;5071760;28;19916;-72
2021/10/06 03:04:36;;;;;;;;;;;;;;;10.99;73.33;99124.19;5071875;28;19912;-71
2021/10/06 03:07:01;;;;;;;;;;;;;;;10.94;73.29;99125.28;5071945;28;19917;-71
2021/10/06 03:09:26;;;;;;;;;;;;;;;10.95;73.51;99121.75;5053522;28;19912;-71
2021/10/06 03:11:51;;;;;;;;;;;;;;;10.97;73.35;99113.72;5052915;28;19913;-74
2021/10/06 03:14:16;;;;;;;;;;;;;;;10.98;73.26;99117.19;5053120;28;19920;-72
2021/10/06 03:16:42;;;;;;;;;;;;;;;11.00;73.40;99123.22;5053131;28;19919;-71
2021/10/06 03:19:07;;;;;;;;;;;;;;;10.98;73.18;99117.19;5070732;28;19913;-71
2021/10/06 03:21:32;;;;;;;;;;;;;;;10.99;72.66;99108.34;5069748;28;19917;-72
2021/10/06 03:23:57;;;;;;;;;;;;;;;11.02;72.81;99108.16;5070721;28;20054;-72
2021/10/06 03:26:23;;;;;;;;;;;;;;;11.06;72.79;99112.31;5071229;28;19916;-72
2021/10/06 03:28:48;;;;;;;;;;;;;;;11.06;73.19;99115.78;5070407;28;19920;-74
2021/10/06 03:31:14;;;;;;;;;;;;;;;11.09;73.15;99117.38;5069664;28;19928;-74
2021/10/06 03:33:39;;;;;;;;;;;;;;;11.08;73.15;99132.38;5070659;28;20001;-72
2021/10/06 03:36:05;;;;;;;;;;;;;;;11.08;72.88;99123.63;5070262;28;19918;-72
2021/10/06 03:38:30;;;;;;;;;;;;;;;11.12;73.10;99130.38;5065261;28;19917;-73
2021/10/06 03:40:55;;;;;;;;;;;;;;;11.12;73.13;99133.88;5067847;28;19923;-72
2021/10/06 03:43:21;;;;;;;;;;;;;;;11.15;72.96;99136.31;5070598;28;20009;-72
2021/10/06 03:45:46;;;;;;;;;;;;;;;11.14;72.89;99128.50;5070433;28;19916;-73
2021/10/06 03:48:11;;;;;;;;;;;;;;;11.12;72.77;99125.97;5052252;28;19927;-71
2021/10/06 03:50:37;;;;;;;;;;;;;;;11.16;72.99;99147.72;5070325;28;19912;-71
2021/10/06 03:53:03;;;;;;;;;;;;;;;11.15;72.77;99152.16;5051834;28;19919;-72
2021/10/06 03:55:28;;;;;;;;;;;;;;;11.13;72.58;99151.41;5069895;28;20059;-71
2021/10/06 03:57:53;;;;;;;;;;;;;;;11.08;72.88;99152.63;5070587;28;20022;-71
2021/10/06 04:00:18;;;;;;;;;;;;;;;11.10;72.64;99153.38;5069879;28;19927;-71
2021/10/06 04:02:44;;;;;;;;;;;;;;;11.14;72.62;99152.25;5069286;28;19920;-72
2021/10/06 04:05:09;;;;;;;;;;;;;;;11.10;72.85;99153.38;5052320;28;19965;-72
2021/10/06 04:07:37;;;;;;;;;;;;;;;11.06;72.43;99147.44;5035625;28;19913;-72
2021/10/06 04:10:03;;;;;;;;;;;;;;;11.10;72.48;99137.53;5069819;28;20445;-72
2021/10/06 04:12:28;;;;;;;;;;;;;;;11.12;72.93;99143.56;5069250;28;19913;-72
2021/10/06 04:14:54;;;;;;;;;;;;;;;11.11;72.82;99133.97;5070271;28;19966;-72
2021/10/06 04:17:19;;;;;;;;;;;;;;;11.13;72.66;99134.72;5048583;28;19912;-72
2021/10/06 04:19:44;;;;;;;;;;;;;;;11.12;72.36;99138.28;5069166;28;20011;-72
2021/10/06 04:22:09;;;;;;;;;;;;;;;11.10;72.39;99148.09;5069073;28;20253;-73
2021/10/06 04:24:34;;;;;;;;;;;;;;;11.06;72.12;99143.97;5069687;28;20380;-71
2021/10/06 04:27:00;;;;;;;;;;;;;;;11.07;71.94;99153.56;5069663;28;19944;-72
2021/10/06 04:29:25;;;;;;;;;;;;;;;11.10;71.80;99156.00;5051855;28;20279;-72
2021/10/06 04:31:50;;;;;;;;;;;;;;;11.13;71.91;99164.59;5069575;28;20286;-73
2021/10/06 04:34:15;;;;;;;;;;;;;;;11.11;71.95;99165.63;5070605;28;19912;-72
2021/10/06 04:36:42;;;;;;;;;;;;;;;11.12;72.06;99173.47;5069724;28;19916;-71
2021/10/06 04:39:07;;;;;;;;;;;;;;;11.09;71.94;99175.41;5069056;28;19912;-71
2021/10/06 04:41:32;;;;;;;;;;;;;;;11.10;72.07;99177.97;5068873;28;19927;-72
2021/10/06 04:43:58;;;;;;;;;;;;;;;11.15;71.89;99178.53;5069793;28;19944;-72
2021/10/06 04:46:23;;;;;;;;;;;;;;;11.16;71.87;99184.66;5076697;28;19916;-75
2021/10/06 04:48:49;;;;;;;;;;;;;;;11.16;71.71;99190.78;5074762;28;20769;-72
2021/10/06 04:51:14;;;;;;;;;;;;;;;11.16;71.54;99190.78;5076805;28;19920;-73
2021/10/06 04:53:39;;;;;;;;;;;;;;;11.16;70.95;99182.88;5074693;28;19912;-72
2021/10/06 04:56:05;;;;;;;;;;;;;;;11.16;70.49;99190.78;5073889;28;20060;-73
2021/10/06 04:58:30;;;;;;;;;;;;;;;11.17;70.96;99194.25;5073170;28;19971;-73
2021/10/06 05:00:55;;;;;;;;;;;;;;;11.17;70.80;99196.91;5072135;28;19921;-73
2021/10/06 05:03:21;;;;;;;;;;;;;;;11.17;70.59;99196.91;5071706;28;19912;-73
2021/10/06 05:05:46;;;;;;;;;;;;;;;11.16;70.30;99193.41;5052772;28;19951;-73
2021/10/06 05:08:11;;;;;;;;;;;;;;;11.15;70.21;99181.19;5069157;28;20343;-73
2021/10/06 05:10:37;;;;;;;;;;;;;;;11.19;70.61;99187.09;5069066;28;19919;-72
2021/10/06 05:13:02;;;;;;;;;;;;;;;11.20;70.45;99182.66;5068296;28;19916;-72
2021/10/06 05:15:27;;;;;;;;;;;;;;;11.20;70.55;99183.53;5050708;28;19919;-73
2021/10/06 05:17:53;;;;;;;;;;;;;;;11.19;70.77;99189.75;5069413;28;19923;-72
2021/10/06 05:20:18;;;;;;;;;;;;;;;11.19;70.80;99195.00;5068219;28;19924;-72
2021/10/06 05:22:43;;;;;;;;;;;;;;;11.24;70.48;99195.59;5067988;28;20415;-72
2021/10/06 05:25:08;;;;;;;;;;;;;;;11.23;70.23;99200.97;5050462;28;19913;-72
2021/10/06 05:27:34;;;;;;;;;;;;;;;11.22;70.67;99204.53;5050272;28;19912;-72
2021/10/06 05:30:00;;;;;;;;;;;;;;;11.21;70.54;99197.56;5068462;28;20291;-71
2021/10/06 05:32:25;;;;;;;;;;;;;;;11.20;70.34;99204.66;5067910;28;20300;-72
2021/10/06 05:34:51;;;;;;;;;;;;;;;11.21;70.54;99202.84;5054918;28;19919;-72
2021/10/06 05:37:16;;;;;;;;;;;;;;;11.20;70.53;99207.28;5068180;28;19912;-71
2021/10/06 05:39:41;;;;;;;;;;;;;;;11.17;70.41;99210.97;5068603;28;20352;-71
2021/10/06 05:42:07;;;;;;;;;;;;;;;11.19;70.67;99210.84;5061595;28;19913;-71
2021/10/06 05:44:32;;;;;;;;;;;;;;;11.20;70.31;99220.47;5048109;28;20296;-72
2021/10/06 05:46:57;;;;;;;;;;;;;;;11.21;70.30;99214.25;5048700;28;19912;-72
2021/10/06 05:49:22;;;;;;;;;;;;;;;11.17;69.98;99221.50;5048834;28;19916;-72
2021/10/06 05:51:48;;;;;;;;;;;;;;;11.23;70.50;99225.56;5047228;28;19913;-72
2021/10/06 05:54:13;;;;;;;;;;;;;;;11.29;69.93;99226.97;5048277;28;19970;-72
2021/10/06 05:56:39;;;;;;;;;;;;;;;11.27;70.06;99232.34;5052729;28;20012;-73
2021/10/06 05:59:04;;;;;;;;;;;;;;;11.28;70.37;99230.56;5051783;28;19920;-74
2021/10/06 06:01:29;;;;;;;;;;;;;;;11.31;70.32;99240.91;5051526;28;19917;-74
2021/10/06 06:03:55;;;;;;;;;;;;;;;11.33;70.17;99239.88;5052429;28;19939;-73
2021/10/06 06:06:20;;;;;;;;;;;;;;;11.34;70.24;99244.22;5034394;28;19956;-73
2021/10/06 06:08:45;;;;;;;;;;;;;;;11.32;69.86;99246.13;5055108;28;19927;-72
2021/10/06 06:11:11;;;;;;;;;;;;;;;11.39;70.30;99251.84;5051502;28;19982;-73
2021/10/06 06:13:36;;;;;;;;;;;;;;;11.36;70.00;99255.53;5052450;28;19912;-72
2021/10/06 06:16:01;;;;;;;;;;;;;;;11.37;70.76;99235.25;5051971;28;19991;-72
2021/10/06 06:18:26;;;;;;;;;;;;;;;11.35;71.28;99248.56;5051929;28;20307;-74
2021/10/06 06:20:52;;;;;;;;;;;;;;;11.32;71.61;99248.75;5052625;28;19978;-73
2021/10/06 06:23:17;;;;;;;;;;;;;;;11.29;71.88;99258.63;5034506;28;19967;-73
2021/10/06 06:25:42;;;;;;;;;;;;;;;11.22;72.59;99246.75;5025726;28;20014;-73
2021/10/06 06:28:07;;;;;;;;;;;;;;;11.20;73.01;99249.50;5052074;28;20578;-73
2021/10/06 06:30:33;;;;;;;;;;;;;;;11.10;74.22;99254.47;5051928;28;19940;-74
2021/10/06 06:32:58;;;;;;;;;;;;;;;11.05;73.83;99255.66;5051015;28;19913;-73
2021/10/06 06:35:23;;;;;;;;;;;;;;;10.98;74.63;99249.06;5051919;28;19920;-73
2021/10/06 06:37:49;;;;;;;;;;;;;;;11.00;74.80;99249.81;5051332;28;19913;-72
2021/10/06 06:40:14;;;;;;;;;;;;;;;10.98;74.67;99259.59;5051317;28;19916;-72
2021/10/06 06:42:39;;;;;;;;;;;;;;;10.90;75.64;99254.78;5050822;28;19912;-72
2021/10/06 06:45:05;;;;;;;;;;;;;;;10.86;75.71;99256.78;5051400;28;19999;-74
2021/10/06 06:47:30;;;;;;;;;;;;;;;10.85;75.92;99251.59;5051589;28;19919;-73
2021/10/06 06:49:56;;;;;;;;;;;;;;;10.82;76.25;99252.63;5051580;28;20296;-73
2021/10/06 06:52:21;;;;;;;;;;;;;;;10.79;76.50;99254.59;5032616;28;19952;-73
2021/10/06 06:54:46;;;;;;;;;;;;;;;10.72;76.93;99260.22;5051189;28;19917;-72
2021/10/06 06:57:12;;;;;;;;;;;;;;;10.68;77.17;99257.84;5050894;28;20295;-71
2021/10/06 06:59:37;;;;;;;;;;;;;;;10.68;77.40;99256.06;5051268;28;19916;-72
2021/10/06 07:02:02;;;;;;;;;;;;;;;10.66;77.53;99271.13;5051035;28;19916;-72
2021/10/06 07:04:28;;;;;;;;;;;;;;;10.66;77.73;99271.13;5033154;28;19947;-73
2021/10/06 07:06:55;;;;;;;;;;;;;;;10.61;78.18;99270.53;5033554;28;19940;-73
2021/10/06 07:09:29;;;;;;;;;;;;;;;10.61;78.69;99269.66;5050752;28;20291;-73
2021/10/06 07:11:54;;;;;;;;;;;;;;;10.62;77.92;99276.66;5050405;28;20429;-73
2021/10/06 07:14:20;;;;;;;;;;;;;;;10.63;78.34;99273.94;5050741;28;19924;-72
2021/10/06 07:16:45;;;;;;;;;;;;;;;10.62;78.09;99272.22;5051089;28;19908;-72
2021/10/06 07:19:10;;;;;;;;;;;;;;;10.62;78.18;99268.75;5050692;28;20643;-73
2021/10/06 07:21:36;;;;;;;;;;;;;;;10.61;78.36;99267.03;5049783;28;19917;-72
2021/10/06 07:24:01;;;;;;;;;;;;;;;10.55;77.86;99275.31;5032688;28;19919;-73
2021/10/06 07:26:26;;;;;;;;;;;;;;;10.57;78.53;99273.44;5051327;28;19916;-73
2021/10/06 07:28:51;;;;;;;;;;;;;;;10.59;78.43;99296.13;5033139;28;19913;-73
2021/10/06 07:31:17;;;;;;;;;;;;;;;10.50;78.33;99286.97;5050183;28;20989;-74
2021/10/06 07:33:44;;;;;;;;;;;;;;;10.50;78.37;99289.59;5052866;28;19955;-72
2021/10/06 07:36:09;;;;;;;;;;;;;;;10.54;78.63;99287.66;5050207;28;19912;-71
2021/10/06 07:38:35;;;;;;;;;;;;;;;10.59;78.50;99284.75;5032361;28;19913;-73
2021/10/06 07:41:00;;;;;;;;;;;;;;;10.64;77.65;99293.25;5049616;28;19924;-72
2021/10/06 07:43:25;;;;;;;;;;;;;;;10.69;76.72;99299.94;5050422;28;19924;-73
2021/10/06 07:45:50;;;;;;;;;;;;;;;10.78;76.90;99287.16;5050268;28;19912;-71
2021/10/06 07:48:16;;;;;;;;;;;;;;;10.76;76.71;99296.97;5050200;28;19920;-71
2021/10/06 07:50:42;;;;;;;;;;;;;;;10.81;76.90;99301.03;5049875;28;19958;-73
2021/10/06 07:53:07;;;;;;;;;;;;;;;10.89;76.62;99305.84;5031918;28;20380;-72
2021/10/06 07:55:32;;;;;;;;;;;;;;;10.99;76.18;99314.06;5050144;28;19924;-71
2021/10/06 07:57:58;;;;;;;;;;;;;;;11.10;75.31;99311.63;5050194;28;20356;-72
2021/10/06 08:00:23;;;;;;;;;;;;;;;11.18;75.83;99314.69;5050147;28;20407;-72
2021/10/06 08:02:48;;;;;;;;;;;;;;;11.20;75.02;99318.09;5049338;28;19913;-72
2021/10/06 08:05:14;;;;;;;;;;;;;;;11.23;75.27;99319.72;5049762;28;19912;-73
2021/10/06 08:07:39;;;;;;;;;;;;;;;11.24;75.03;99314.31;5031923;28;19916;-71
2021/10/06 08:10:05;;;;;;;;;;;;;;;11.32;74.09;99317.38;5049596;28;19962;-73
2021/10/06 08:12:30;;;;;;;;;;;;;;;11.48;73.21;99321.72;5032018;28;19919;-72
2021/10/06 08:14:55;;;;;;;;;;;;;;;11.71;72.99;99325.59;5051259;28;19923;-73
2021/10/06 08:17:21;;;;;;;;;;;;;;;11.86;72.25;99324.63;5069374;28;19913;-72
2021/10/06 08:19:46;;;;;;;;;;;;;;;11.97;72.33;99318.75;5069668;28;19912;-73
2021/10/06 08:22:12;;;;;;;;;;;;;;;12.00;71.08;99322.03;5069417;28;19916;-72
2021/10/06 08:24:38;;;;;;;;;;;;;;;12.00;71.43;99335.22;5069578;28;19912;-72
2021/10/06 08:27:04;;;;;;;;;;;;;;;12.06;71.05;99334.03;5069702;28;19916;-71
2021/10/06 08:29:29;;;;;;;;;;;;;;;12.06;70.23;99344.59;5069900;28;19920;-72
2021/10/06 08:31:54;;;;;;;;;;;;;;;11.97;70.38;99343.34;5069048;28;19935;-72
2021/10/06 08:34:20;;;;;;;;;;;;;;;11.94;70.25;99348.84;5069523;28;19977;-72
2021/10/06 08:36:45;;;;;;;;;;;;;;;11.87;70.79;99350.16;5069727;28;19913;-73
2021/10/06 08:39:10;;;;;;;;;;;;;;;11.79;69.85;99349.75;5069000;28;20008;-73
2021/10/06 08:41:36;;;;;;;;;;;;;;;11.86;70.85;99355.50;5042675;28;19948;-73
2021/10/06 08:44:02;;;;;;;;;;;;;;;11.87;70.83;99354.59;5069174;28;19916;-72
2021/10/06 08:46:28;;;;;;;;;;;;;;;11.94;71.68;99358.56;5069593;28;19995;-72
2021/10/06 08:48:53;;;;;;;;;;;;;;;11.99;71.64;99353.84;5069351;28;20011;-73
2021/10/06 08:51:19;;;;;;;;;;;;;;;11.92;71.38;99374.50;5068490;28;20292;-73
2021/10/06 08:53:44;;;;;;;;;;;;;;;11.90;70.43;99375.53;5068991;28;19920;-72
2021/10/06 08:56:10;;;;;;;;;;;;;;;11.80;71.56;99365.50;5069066;28;19920;-74
2021/10/06 08:58:35;;;;;;;;;;;;;;;11.72;70.92;99375.69;5069103;28;20391;-73
2021/10/06 09:01:00;;;;;;;;;;;;;;;11.66;72.03;99373.41;5050331;28;19935;-72
2021/10/06 09:03:33;;;;;;;;;;;;;;;11.58;72.62;99365.09;5069551;28;19913;-72
2021/10/06 09:06:02;;;;;;;;;;;;;;;11.51;72.98;99371.69;5051147;28;20299;-72
2021/10/06 09:08:29;;;;;;;;;;;;;;;11.51;73.63;99376.97;5068979;28;19916;-72
2021/10/06 09:10:54;;;;;;;;;;;;;;;11.38;73.91;99380.31;5068523;28;20003;-72
2021/10/06 09:13:24;;;;;;;;;;;;;;;11.34;74.34;99384.06;5068557;28;20007;-72
2021/10/06 09:15:49;;;;;;;;;;;;;;;11.35;74.66;99388.44;5068759;28;19922;-73
2021/10/06 09:18:19;;;;;;;;;;;;;;;11.36;74.51;99387.47;5050591;28;20014;-73
2021/10/06 09:20:44;;;;;;;;;;;;;;;11.34;74.78;99384.06;5068806;28;20287;-73
2021/10/06 09:23:12;;;;;;;;;;;;;;;11.31;74.41;99386.91;5068210;28;19912;-72
2021/10/06 09:25:47;;;;;;;;;;;;;;;11.29;74.85;99391.41;5068947;28;19918;-72
2021/10/06 09:28:17;;;;;;;;;;;;;;;11.31;75.06;99389.53;5055399;28;19913;-72
2021/10/06 09:30:43;;;;;;;;;;;;;;;11.37;75.29;99393.59;5052892;28;19919;-72
2021/10/06 09:33:08;;;;;;;;;;;;;;;11.36;74.84;99405.97;5051944;28;19912;-72
2021/10/06 09:35:33;;;;;;;;;;;;;;;11.30;75.07;99405.50;5053105;28;19943;-73
2021/10/06 09:37:58;;;;;;;;;;;;;;;11.27;76.30;99406.50;5053981;28;20279;-72
2021/10/06 09:40:26;;;;;;;;;;;;;;;11.25;76.76;99413.66;5071875;28;20299;-72
2021/10/06 09:42:53;;;;;;;;;;;;;;;11.23;76.21;99418.19;5072197;28;19913;-72
2021/10/06 09:45:48;;;;;;;;;;;;;;;11.20;76.38;99413.09;5055487;28;19916;-74
2021/10/06 09:48:15;;;;;;;;;;;;;;;11.18;76.50;99418.44;5060212;28;20368;-73
2021/10/06 09:50:44;;;;;;;;;;;;;;;11.14;76.78;99418.69;5073444;28;20351;-73
2021/10/06 09:53:14;;;;;;;;;;;;;;;11.12;77.40;99423.22;5054350;28;20372;-72
2021/10/06 09:55:40;;;;;;;;;;;;;;;11.08;77.99;99426.97;5073188;28;20002;-72
2021/10/06 09:58:06;;;;;;;;;;;;;;;11.04;77.79;99420.16;5073141;28;19919;-72
2021/10/06 10:00:32;;;;;;;;;;;;;;;11.02;77.89;99432.59;5072753;28;20306;-72
2021/10/06 10:02:57;;;;;;;;;;;;;;;11.03;78.64;99435.16;5072411;28;19913;-72
2021/10/06 10:05:23;;;;;;;;;;;;;;;11.01;77.84;99434.38;5071877;28;19916;-74
2021/10/06 10:07:50;;;;;;;;;;;;;;;11.03;78.30;99439.59;5063848;28;20011;-72
2021/10/06 10:10:15;;;;;;;;;;;;;;;11.11;78.10;99446.09;5053573;28;19988;-73
2021/10/06 10:12:41;;;;;;;;;;;;;;;11.12;78.41;99452.22;5071981;28;19928;-73
2021/10/06 10:15:07;;;;;;;;;;;;;;;11.10;78.34;99448.81;5070974;28;20058;-72
2021/10/06 10:17:32;;;;;;;;;;;;;;;11.11;77.88;99456.66;5073612;28;19948;-74
2021/10/06 10:20:02;;;;;;;;;;;;;;;11.15;78.16;99452.91;5071928;28;19967;-72
2021/10/06 10:22:30;;;;;;;;;;;;;;;11.16;77.90;99466.97;5071641;28;19916;-73
2021/10/06 10:24:55;;;;;;;;;;;;;;;11.18;78.69;99462.44;5072838;28;19974;-72
2021/10/06 10:27:22;;;;;;;;;;;;;;;11.21;78.04;99474.63;5072410;28;19966;-72
2021/10/06 10:30:02;;;;;;;;;;;;;;;11.18;78.16;99478.28;5072446;28;19912;-72
2021/10/06 10:32:40;;;;;;;;;;;;;;;11.17;78.29;99480.06;5054473;28;20303;-73
2021/10/06 10:35:10;;;;;;;;;;;;;;;11.15;77.25;99487.22;5055503;28;19916;-73
2021/10/06 10:37:47;;;;;;;;;;;;;;;11.15;78.27;99489.00;5073039;28;19946;-73
2021/10/06 10:40:30;;;;;;;;;;;;;;;11.14;77.28;99485.50;5073295;28;19986;-73
2021/10/06 10:43:09;;;;;;;;;;;;;;;11.17;77.94;99487.13;5070979;28;20368;-72
2021/10/06 10:45:35;;;;;;;;;;;;;;;11.24;77.80;99485.84;5049357;28;19912;-73
2021/10/06 10:48:00;;;;;;;;;;;;;;;11.26;77.69;99497.16;5051127;28;19913;-72
2021/10/06 10:50:44;;;;;;;;;;;;;;;11.30;77.82;99488.13;5051525;28;19912;-73
2021/10/06 10:53:13;;;;;;;;;;;;;;;11.37;77.61;99499.19;5032074;28;19913;-74
2021/10/06 10:55:46;;;;;;;;;;;;;;;11.41;77.28;99497.22;5031963;28;19919;-73
2021/10/06 10:58:30;;;;;;;;;;;;;;;11.46;76.82;99497.81;5032001;28;20048;-73
2021/10/06 11:00:56;;;;;;;;;;;;;;;11.51;77.62;99506.31;5031357;28;19977;-71
2021/10/06 11:03:21;;;;;;;;;;;;;;;11.52;77.63;99508.03;5031540;28;19959;-72
2021/10/06 11:05:47;;;;;;;;;;;;;;;11.47;77.58;99508.28;5032014;28;19912;-73
2021/10/06 11:08:28;;;;;;;;;;;;;;;11.46;77.98;99509.22;5033952;28;19917;-72
2021/10/06 11:11:09;;;;;;;;;;;;;;;11.42;78.05;99513.00;5031313;28;19917;-73
2021/10/06 11:13:38;;;;;;;;;;;;;;;11.37;77.40;99521.16;5015475;28;19917;-73
2021/10/06 11:16:04;;;;;;;;;;;;;;;11.38;78.34;99517.56;5034579;28;20007;-72
2021/10/06 11:18:40;;;;;;;;;;;;;;;11.29;77.32;99520.72;5013259;28;19997;-72
2021/10/06 11:21:06;;;;;;;;;;;;;;;11.25;77.98;99532.41;5030281;28;20373;-73
2021/10/06 11:23:31;;;;;;;;;;;;;;;11.20;77.74;99538.88;5030431;28;19917;-73
2021/10/06 11:26:02;;;;;;;;;;;;;;;11.20;78.30;99530.94;5030213;28;19913;-74
2021/10/06 11:28:28;;;;;;;;;;;;;;;11.21;78.95;99544.06;5030746;28;19913;-75
2021/10/06 11:30:54;;;;;;;;;;;;;;;11.21;79.43;99528.22;5030390;28;20384;-74
2021/10/06 11:33:29;;;;;;;;;;;;;;;11.18;78.83;99528.41;5030802;28;19913;-73
2021/10/06 11:36:12;;;;;;;;;;;;;;;11.22;78.81;99539.63;5031289;28;19913;-73
2021/10/06 11:38:37;;;;;;;;;;;;;;;11.22;78.81;99537.00;5030643;28;19913;-72
2021/10/06 11:41:03;;;;;;;;;;;;;;;11.26;79.00;99552.56;5076795;28;19927;-73
2021/10/06 11:43:42;;;;;;;;;;;;;;;11.28;79.40;99547.22;5050703;28;20264;-73
2021/10/06 11:46:11;;;;;;;;;;;;;;;11.24;78.84;99557.09;5050957;28;19963;-73
2021/10/06 11:48:36;;;;;;;;;;;;;;;11.29;79.13;99543.63;5050685;28;20372;-72
2021/10/06 11:51:01;;;;;;;;;;;;;;;11.32;78.96;99554.88;5050484;28;19920;-71
2021/10/06 11:53:43;;;;;;;;;;;;;;;11.29;78.13;99556.81;5050542;28;20027;-73
2021/10/06 11:56:08;;;;;;;;;;;;;;;11.33;78.37;99559.22;5048503;28;20399;-71
2021/10/06 11:58:34;;;;;;;;;;;;;;;11.34;77.90;99555.63;5050597;28;19912;-72
2021/10/06 12:01:03;;;;;;;;;;;;;;;11.37;77.91;99562.53;5049612;28;19921;-73
2021/10/06 12:03:34;;;;;;;;;;;;;;;11.42;77.46;99567.53;5049905;28;19972;-71
2021/10/06 12:05:59;;;;;;;;;;;;;;;11.40;78.36;99572.94;5050436;28;19917;-72
2021/10/06 12:08:24;;;;;;;;;;;;;;;11.45;78.46;99585.88;5048942;28;20369;-72
2021/10/06 12:10:49;;;;;;;;;;;;;;;11.45;77.75;99578.78;5049753;28;20365;-72
2021/10/06 12:13:34;;;;;;;;;;;;;;;11.45;78.64;99589.34;5048217;28;19913;-71
2021/10/06 12:15:59;;;;;;;;;;;;;;;11.43;78.89;99587.75;5010736;28;19913;-73
2021/10/06 12:18:24;;;;;;;;;;;;;;;11.35;79.27;99602.22;5025320;28;19987;-73
2021/10/06 12:20:50;;;;;;;;;;;;;;;11.37;78.80;99595.06;5010310;28;19923;-72
2021/10/06 12:23:22;;;;;;;;;;;;;;;11.41;79.20;99594.88;5009417;28;20003;-73
2021/10/06 12:25:51;;;;;;;;;;;;;;;11.39;78.77;99593.19;5010501;28;19913;-72
2021/10/06 12:28:18;;;;;;;;;;;;;;;11.42;78.94;99593.94;5025413;28;19920;-73
2021/10/06 12:30:51;;;;;;;;;;;;;;;11.47;79.05;99592.78;5010110;28;19921;-72
2021/10/06 12:33:16;;;;;;;;;;;;;;;11.50;78.75;99599.66;5009222;28;19914;-73
2021/10/06 12:35:54;;;;;;;;;;;;;;;11.60;79.38;99598.19;4998792;28;20424;-73
2021/10/06 12:38:20;;;;;;;;;;;;;;;11.62;78.94;99604.25;5009424;28;19952;-72
2021/10/06 12:40:49;;;;;;;;;;;;;;;11.61;78.39;99605.16;5009176;28;19967;-72
2021/10/06 12:43:14;;;;;;;;;;;;;;;11.59;77.64;99607.91;5010075;28;19932;-71